createdAt,value
2018-02-04T00:00:38.572Z,1006.23
2018-02-04T00:01:38.566Z,1006.21
2018-02-04T00:02:38.552Z,1006.23
2018-02-04T00:03:38.599Z,1006.22
2018-02-04T00:04:38.530Z,1006.30
2018-02-04T00:05:38.520Z,1006.30
2018-02-04T00:06:38.507Z,1006.33
2018-02-04T00:07:38.500Z,1006.29
2018-02-04T00:08:38.488Z,1006.33
2018-02-04T00:09:38.482Z,1006.31
2018-02-04T00:10:38.466Z,1006.41
2018-02-04T00:11:38.457Z,1006.37
2018-02-04T00:12:38.444Z,1006.42
2018-02-04T00:13:38.434Z,1006.40
2018-02-04T00:14:38.421Z,1006.44
2018-02-04T00:15:38.411Z,1006.47
2018-02-04T00:16:38.396Z,1006.42
2018-02-04T00:17:38.386Z,1006.49
2018-02-04T00:18:38.375Z,1006.49
2018-02-04T00:19:38.360Z,1006.53
2018-02-04T00:20:38.355Z,1006.49
2018-02-04T00:21:38.344Z,1006.54
2018-02-04T00:22:38.330Z,1006.55
2018-02-04T00:23:38.316Z,1006.58
2018-02-04T00:24:38.309Z,1006.59
2018-02-04T00:25:38.298Z,1006.59
2018-02-04T00:26:38.286Z,1006.64
2018-02-04T00:27:38.275Z,1006.64
2018-02-04T00:28:38.264Z,1006.57
2018-02-04T00:29:38.252Z,1006.55
2018-02-04T00:30:38.241Z,1006.60
2018-02-04T00:31:38.229Z,1006.62
2018-02-04T00:32:38.214Z,1006.65
2018-02-04T00:33:38.202Z,1006.73
2018-02-04T00:34:38.191Z,1006.68
2018-02-04T00:35:38.179Z,1006.66
2018-02-04T00:36:38.167Z,1006.75
2018-02-04T00:37:38.157Z,1006.77
2018-02-04T00:38:38.143Z,1006.75
2018-02-04T00:39:38.132Z,1006.76
2018-02-04T00:40:38.125Z,1006.72
2018-02-04T00:41:38.113Z,1006.77
2018-02-04T00:42:38.101Z,1006.79
2018-02-04T00:43:38.090Z,1006.77
2018-02-04T00:44:38.078Z,1006.82
2018-02-04T00:45:38.066Z,1006.82
2018-02-04T00:46:38.054Z,1006.86
2018-02-04T00:47:38.044Z,1006.88
2018-02-04T00:48:38.026Z,1006.87
2018-02-04T00:49:38.014Z,1006.97
2018-02-04T00:50:38.010Z,1006.91
2018-02-04T00:51:37.990Z,1006.96
2018-02-04T00:52:37.983Z,1006.94
2018-02-04T00:53:37.971Z,1006.93
2018-02-04T00:54:37.958Z,1006.93
2018-02-04T00:55:37.947Z,1006.92
2018-02-04T00:56:37.931Z,1006.95
2018-02-04T00:57:37.919Z,1006.95
2018-02-04T00:58:37.910Z,1006.99
2018-02-04T00:59:37.895Z,1006.92
2018-02-04T01:00:37.883Z,1006.98
2018-02-04T01:01:37.872Z,1006.97
2018-02-04T01:02:37.859Z,1007.04
2018-02-04T01:03:37.847Z,1007.03
2018-02-04T01:04:37.839Z,1007.07
2018-02-04T01:05:37.828Z,1007.04
2018-02-04T01:06:37.815Z,1007.04
2018-02-04T01:07:37.804Z,1007.12
2018-02-04T01:08:37.792Z,1007.10
2018-02-04T01:09:37.780Z,1007.14
2018-02-04T01:10:37.767Z,1007.17
2018-02-04T01:11:37.755Z,1007.21
2018-02-04T01:12:37.739Z,1007.25
2018-02-04T01:13:37.727Z,1007.26
2018-02-04T01:14:37.714Z,1007.23
2018-02-04T01:15:37.703Z,1007.24
2018-02-04T01:16:37.691Z,1007.25
2018-02-04T01:17:37.682Z,1007.31
2018-02-04T01:18:37.667Z,1007.33
2018-02-04T01:19:37.655Z,1007.36
2018-02-04T01:20:37.648Z,1007.31
2018-02-04T01:21:37.636Z,1007.36
2018-02-04T01:22:37.623Z,1007.38
2018-02-04T01:23:37.611Z,1007.35
2018-02-04T01:24:37.599Z,1007.42
2018-02-04T01:25:37.587Z,1007.46
2018-02-04T01:26:37.581Z,1007.48
2018-02-04T01:27:37.563Z,1007.44
2018-02-04T01:28:37.547Z,1007.45
2018-02-04T01:29:37.535Z,1007.51
2018-02-04T01:30:37.522Z,1007.55
2018-02-04T01:31:37.511Z,1007.59
2018-02-04T01:32:37.499Z,1007.58
2018-02-04T01:33:37.487Z,1007.56
2018-02-04T01:34:37.474Z,1007.56
2018-02-04T01:35:37.463Z,1007.63
2018-02-04T01:36:37.456Z,1007.60
2018-02-04T01:37:37.443Z,1007.60
2018-02-04T01:38:37.431Z,1007.61
2018-02-04T01:39:37.421Z,1007.56
2018-02-04T01:40:37.407Z,1007.60
2018-02-04T01:41:37.396Z,1007.61
2018-02-04T01:42:37.382Z,1007.59
2018-02-04T01:43:37.372Z,1007.67
2018-02-04T01:44:37.356Z,1007.71
2018-02-04T01:45:37.344Z,1007.73
2018-02-04T01:46:37.331Z,1007.78
2018-02-04T01:47:37.320Z,1007.68
2018-02-04T01:48:37.308Z,1007.72
2018-02-04T01:49:37.296Z,1007.74
2018-02-04T01:50:37.284Z,1007.74
2018-02-04T01:51:37.272Z,1007.72
2018-02-04T01:52:37.265Z,1007.78
2018-02-04T01:53:37.253Z,1007.81
2018-02-04T01:54:37.241Z,1007.75
2018-02-04T01:55:37.229Z,1007.84
2018-02-04T01:56:37.212Z,1007.82
2018-02-04T01:57:37.202Z,1007.86
2018-02-04T01:58:37.189Z,1007.82
2018-02-04T01:59:37.177Z,1007.85
2018-02-04T02:00:37.170Z,1007.91
2018-02-04T02:01:37.158Z,1007.86
2018-02-04T02:02:37.145Z,1007.89
2018-02-04T02:03:37.133Z,1007.83
2018-02-04T02:04:37.122Z,1007.85
2018-02-04T02:05:37.110Z,1007.89
2018-02-04T02:06:37.134Z,1007.88
2018-02-04T02:07:37.086Z,1007.87
2018-02-04T02:08:37.070Z,1007.86
2018-02-04T02:09:37.060Z,1007.86
2018-02-04T02:10:37.046Z,1007.86
2018-02-04T02:11:37.034Z,1007.88
2018-02-04T02:12:37.022Z,1007.90
2018-02-04T02:13:37.010Z,1007.94
2018-02-04T02:14:36.998Z,1007.87
2018-02-04T02:15:36.986Z,1007.98
2018-02-04T02:16:36.978Z,1007.97
2018-02-04T02:17:36.971Z,1007.94
2018-02-04T02:18:36.954Z,1007.93
2018-02-04T02:19:36.942Z,1007.96
2018-02-04T02:20:36.931Z,1007.99
2018-02-04T02:21:36.919Z,1008.05
2018-02-04T02:22:36.907Z,1008.08
2018-02-04T02:23:36.895Z,1008.08
2018-02-04T02:24:36.879Z,1008.11
2018-02-04T02:25:36.868Z,1008.16
2018-02-04T02:26:36.855Z,1008.21
2018-02-04T02:27:36.843Z,1008.20
2018-02-04T02:28:36.831Z,1008.18
2018-02-04T02:29:36.819Z,1008.22
2018-02-04T02:30:36.807Z,1008.27
2018-02-04T02:31:36.796Z,1008.20
2018-02-04T02:32:36.789Z,1008.19
2018-02-04T02:33:36.776Z,1008.24
2018-02-04T02:34:36.770Z,1008.20
2018-02-04T02:35:36.752Z,1008.26
2018-02-04T02:36:36.741Z,1008.23
2018-02-04T02:37:36.729Z,1008.23
2018-02-04T02:38:36.716Z,1008.20
2018-02-04T02:39:36.704Z,1008.28
2018-02-04T02:40:36.699Z,1008.25
2018-02-04T02:41:36.677Z,1008.26
2018-02-04T02:42:36.664Z,1008.26
2018-02-04T02:43:36.652Z,1008.32
2018-02-04T02:44:36.640Z,1008.34
2018-02-04T02:45:36.629Z,1008.28
2018-02-04T02:46:36.619Z,1008.34
2018-02-04T02:47:36.604Z,1008.36
2018-02-04T02:48:36.601Z,1008.34
2018-02-04T02:49:36.585Z,1008.33
2018-02-04T02:50:36.572Z,1008.41
2018-02-04T02:51:36.561Z,1008.40
2018-02-04T02:52:36.548Z,1008.46
2018-02-04T02:53:36.536Z,1008.40
2018-02-04T02:54:36.524Z,1008.50
2018-02-04T02:55:36.511Z,1008.50
2018-02-04T02:56:36.496Z,1008.58
2018-02-04T02:57:36.484Z,1008.57
2018-02-04T02:58:36.471Z,1008.63
2018-02-04T02:59:36.460Z,1008.60
2018-02-04T03:00:36.452Z,1008.66
2018-02-04T03:01:36.440Z,1008.64
2018-02-04T03:02:36.428Z,1008.65
2018-02-04T03:03:36.415Z,1008.69
2018-02-04T03:04:36.401Z,1008.69
2018-02-04T03:05:36.388Z,1008.70
2018-02-04T03:06:36.374Z,1008.79
2018-02-04T03:07:36.363Z,1008.77
2018-02-04T03:08:36.352Z,1008.75
2018-02-04T03:09:36.340Z,1008.78
2018-02-04T03:10:36.329Z,1008.80
2018-02-04T03:11:36.315Z,1008.84
2018-02-04T03:12:36.308Z,1008.88
2018-02-04T03:13:36.345Z,1008.93
2018-02-04T03:14:36.284Z,1008.95
2018-02-04T03:15:36.277Z,1008.92
2018-02-04T03:16:36.262Z,1008.87
2018-02-04T03:17:36.249Z,1008.95
2018-02-04T03:18:36.237Z,1008.95
2018-02-04T03:19:36.224Z,1008.94
2018-02-04T03:20:36.208Z,1008.96
2018-02-04T03:21:36.197Z,1009.04
2018-02-04T03:22:36.184Z,1008.99
2018-02-04T03:23:36.172Z,1008.91
2018-02-04T03:24:36.160Z,1008.99
2018-02-04T03:25:36.148Z,1009.02
2018-02-04T03:26:36.136Z,1009.04
2018-02-04T03:27:36.125Z,1009.04
2018-02-04T03:28:36.115Z,1009.03
2018-02-04T03:29:36.105Z,1009.13
2018-02-04T03:30:36.092Z,1009.08
2018-02-04T03:31:36.084Z,1009.04
2018-02-04T03:32:36.068Z,1009.15
2018-02-04T03:33:36.057Z,1009.08
2018-02-04T03:34:36.043Z,1009.07
2018-02-04T03:35:36.067Z,1009.14
2018-02-04T03:36:36.014Z,1009.18
2018-02-04T03:37:36.003Z,1009.13
2018-02-04T03:38:35.990Z,1009.21
2018-02-04T03:39:35.978Z,1009.23
2018-02-04T03:40:35.966Z,1009.29
2018-02-04T03:41:35.955Z,1009.29
2018-02-04T03:42:35.942Z,1009.35
2018-02-04T03:43:35.930Z,1009.33
2018-02-04T03:44:35.923Z,1009.33
2018-02-04T03:45:35.911Z,1009.34
2018-02-04T03:46:35.898Z,1009.34
2018-02-04T03:47:35.886Z,1009.37
2018-02-04T03:48:35.874Z,1009.40
2018-02-04T03:49:35.864Z,1009.41
2018-02-04T03:50:35.849Z,1009.46
2018-02-04T03:51:35.838Z,1009.48
2018-02-04T03:52:35.823Z,1009.61
2018-02-04T03:53:35.810Z,1009.57
2018-02-04T03:54:35.796Z,1009.66
2018-02-04T03:55:35.784Z,1009.59
2018-02-04T03:56:35.773Z,1009.67
2018-02-04T03:57:35.761Z,1009.67
2018-02-04T03:58:35.747Z,1009.64
2018-02-04T03:59:35.736Z,1009.65
2018-02-04T04:00:35.728Z,1009.62
2018-02-04T04:01:35.716Z,1009.67
2018-02-04T04:02:35.704Z,1009.69
2018-02-04T04:03:35.691Z,1009.65
2018-02-04T04:04:35.680Z,1009.73
2018-02-04T04:05:35.668Z,1009.72
2018-02-04T04:06:35.655Z,1009.75
2018-02-04T04:07:35.642Z,1009.78
2018-02-04T04:08:35.627Z,1009.73
2018-02-04T04:09:35.615Z,1009.85
2018-02-04T04:10:35.602Z,1009.84
2018-02-04T04:11:35.590Z,1009.84
2018-02-04T04:12:35.578Z,1009.85
2018-02-04T04:13:35.566Z,1009.89
2018-02-04T04:14:35.553Z,1009.95
2018-02-04T04:15:35.541Z,1009.97
2018-02-04T04:16:35.565Z,1009.96
2018-02-04T04:17:35.525Z,1009.94
2018-02-04T04:18:35.515Z,1010.02
2018-02-04T04:19:35.502Z,1009.94
2018-02-04T04:20:35.485Z,1009.97
2018-02-04T04:21:35.473Z,1009.99
2018-02-04T04:22:35.460Z,1010.02
2018-02-04T04:23:35.447Z,1009.99
2018-02-04T04:24:35.431Z,1010.05
2018-02-04T04:25:35.419Z,1010.02
2018-02-04T04:26:35.410Z,1010.04
2018-02-04T04:27:35.395Z,1010.07
2018-02-04T04:28:35.382Z,1010.10
2018-02-04T04:29:35.371Z,1010.10
2018-02-04T04:30:35.358Z,1010.11
2018-02-04T04:31:35.346Z,1010.17
2018-02-04T04:32:35.340Z,1010.20
2018-02-04T04:33:35.325Z,1010.19
2018-02-04T04:34:35.318Z,1010.22
2018-02-04T04:35:35.301Z,1010.24
2018-02-04T04:36:35.289Z,1010.28
2018-02-04T04:37:35.277Z,1010.25
2018-02-04T04:38:35.305Z,1010.28
2018-02-04T04:39:35.253Z,1010.24
2018-02-04T04:40:35.236Z,1010.29
2018-02-04T04:41:35.224Z,1010.25
2018-02-04T04:42:35.214Z,1010.33
2018-02-04T04:43:35.199Z,1010.32
2018-02-04T04:44:35.187Z,1010.38
2018-02-04T04:45:35.176Z,1010.28
2018-02-04T04:46:35.163Z,1010.34
2018-02-04T04:47:35.151Z,1010.42
2018-02-04T04:48:35.143Z,1010.43
2018-02-04T04:49:35.131Z,1010.42
2018-02-04T04:50:35.118Z,1010.44
2018-02-04T04:51:35.106Z,1010.41
2018-02-04T04:52:35.094Z,1010.45
2018-02-04T04:53:35.082Z,1010.45
2018-02-04T04:54:35.070Z,1010.48
2018-02-04T04:55:35.107Z,1010.52
2018-02-04T04:56:35.041Z,1010.52
2018-02-04T04:57:35.029Z,1010.53
2018-02-04T04:58:35.016Z,1010.58
2018-02-04T04:59:35.004Z,1010.56
2018-02-04T05:00:34.992Z,1010.58
2018-02-04T05:01:34.980Z,1010.64
2018-02-04T05:02:34.966Z,1010.59
2018-02-04T05:03:34.955Z,1010.61
2018-02-04T05:04:34.947Z,1010.60
2018-02-04T05:05:34.935Z,1010.59
2018-02-04T05:06:34.922Z,1010.61
2018-02-04T05:07:34.910Z,1010.56
2018-02-04T05:08:34.895Z,1010.55
2018-02-04T05:09:34.882Z,1010.57
2018-02-04T05:10:34.869Z,1010.62
2018-02-04T05:11:34.857Z,1010.60
2018-02-04T05:12:34.849Z,1010.67
2018-02-04T05:13:34.836Z,1010.68
2018-02-04T05:14:34.823Z,1010.70
2018-02-04T05:15:34.812Z,1010.74
2018-02-04T05:16:34.799Z,1010.74
2018-02-04T05:17:34.787Z,1010.77
2018-02-04T05:18:34.773Z,1010.77
2018-02-04T05:19:34.762Z,1010.80
2018-02-04T05:20:34.745Z,1010.83
2018-02-04T05:21:34.734Z,1010.85
2018-02-04T05:22:34.720Z,1010.79
2018-02-04T05:23:34.708Z,1010.90
2018-02-04T05:24:34.696Z,1010.88
2018-02-04T05:25:34.684Z,1010.88
2018-02-04T05:26:34.670Z,1010.90
2018-02-04T05:27:34.658Z,1010.92
2018-02-04T05:28:34.650Z,1010.92
2018-02-04T05:29:34.643Z,1010.96
2018-02-04T05:30:34.624Z,1010.95
2018-02-04T05:31:34.612Z,1010.99
2018-02-04T05:32:34.600Z,1011.03
2018-02-04T05:33:34.588Z,1011.01
2018-02-04T05:34:34.574Z,1011.09
2018-02-04T05:35:34.562Z,1011.10
2018-02-04T05:36:34.545Z,1011.02
2018-02-04T05:37:34.533Z,1011.08
2018-02-04T05:38:34.520Z,1011.09
2018-02-04T05:39:34.508Z,1011.16
2018-02-04T05:40:34.496Z,1011.18
2018-02-04T05:41:34.483Z,1011.19
2018-02-04T05:42:34.470Z,1011.19
2018-02-04T05:43:34.458Z,1011.24
2018-02-04T05:44:34.451Z,1011.19
2018-02-04T05:45:34.438Z,1011.23
2018-02-04T05:46:34.425Z,1011.25
2018-02-04T05:47:34.413Z,1011.28
2018-02-04T05:48:34.401Z,1011.27
2018-02-04T05:49:34.389Z,1011.25
2018-02-04T05:50:34.378Z,1011.22
2018-02-04T05:51:34.364Z,1011.28
2018-02-04T05:52:34.347Z,1011.30
2018-02-04T05:53:34.335Z,1011.29
2018-02-04T05:54:34.345Z,1011.30
2018-02-04T05:55:34.310Z,1011.35
2018-02-04T05:56:34.298Z,1011.35
2018-02-04T05:57:34.287Z,1011.33
2018-02-04T05:58:34.274Z,1011.37
2018-02-04T05:59:34.262Z,1011.39
2018-02-04T06:00:34.254Z,1011.41
2018-02-04T06:01:34.242Z,1011.44
2018-02-04T06:02:34.230Z,1011.42
2018-02-04T06:03:34.217Z,1011.45
2018-02-04T06:04:34.206Z,1011.48
2018-02-04T06:05:34.194Z,1011.48
2018-02-04T06:06:34.185Z,1011.51
2018-02-04T06:07:34.169Z,1011.49
2018-02-04T06:08:34.153Z,1011.52
2018-02-04T06:09:34.141Z,1011.51
2018-02-04T06:10:34.128Z,1011.53
2018-02-04T06:11:34.117Z,1011.60
2018-02-04T06:12:34.108Z,1011.59
2018-02-04T06:13:34.096Z,1011.66
2018-02-04T06:14:34.083Z,1011.64
2018-02-04T06:15:34.071Z,1011.69
2018-02-04T06:16:34.056Z,1011.66
2018-02-04T06:17:34.043Z,1011.75
2018-02-04T06:18:34.031Z,1011.74
2018-02-04T06:19:34.018Z,1011.74
2018-02-04T06:20:34.007Z,1011.72
2018-02-04T06:21:33.995Z,1011.77
2018-02-04T06:22:33.982Z,1011.82
2018-02-04T06:23:33.970Z,1011.85
2018-02-04T06:24:33.963Z,1011.81
2018-02-04T06:25:33.951Z,1011.84
2018-02-04T06:26:33.938Z,1011.89
2018-02-04T06:27:33.926Z,1011.89
2018-02-04T06:28:33.914Z,1011.88
2018-02-04T06:29:33.903Z,1011.92
2018-02-04T06:30:33.888Z,1011.97
2018-02-04T06:31:33.877Z,1012.03
2018-02-04T06:32:33.862Z,1012.02
2018-02-04T06:33:33.849Z,1011.96
2018-02-04T06:34:33.837Z,1012.02
2018-02-04T06:35:33.825Z,1012.00
2018-02-04T06:36:33.813Z,1012.04
2018-02-04T06:37:33.801Z,1012.10
2018-02-04T06:38:33.788Z,1012.09
2018-02-04T06:39:33.778Z,1012.08
2018-02-04T06:40:33.769Z,1012.12
2018-02-04T06:41:33.757Z,1012.13
2018-02-04T06:42:33.744Z,1012.17
2018-02-04T06:43:33.732Z,1012.13
2018-02-04T06:44:33.720Z,1012.16
2018-02-04T06:45:33.709Z,1012.19
2018-02-04T06:46:33.698Z,1012.18
2018-02-04T06:47:33.684Z,1012.21
2018-02-04T06:48:33.668Z,1012.16
2018-02-04T06:49:33.657Z,1012.15
2018-02-04T06:50:33.643Z,1012.17
2018-02-04T06:51:33.632Z,1012.20
2018-02-04T06:52:33.619Z,1012.29
2018-02-04T06:53:33.639Z,1012.24
2018-02-04T06:54:33.595Z,1012.27
2018-02-04T06:55:33.586Z,1012.24
2018-02-04T06:56:33.576Z,1012.28
2018-02-04T06:57:33.563Z,1012.34
2018-02-04T06:58:33.551Z,1012.35
2018-02-04T06:59:33.539Z,1012.33
2018-02-04T07:00:33.527Z,1012.34
2018-02-04T07:01:33.515Z,1012.32
2018-02-04T07:02:33.502Z,1012.35
2018-02-04T07:03:33.490Z,1012.41
2018-02-04T07:04:33.475Z,1012.37
2018-02-04T07:05:33.463Z,1012.40
2018-02-04T07:06:33.451Z,1012.41
2018-02-04T07:07:33.438Z,1012.42
2018-02-04T07:08:33.427Z,1012.43
2018-02-04T07:09:33.414Z,1012.51
2018-02-04T07:10:33.402Z,1012.49
2018-02-04T07:11:33.390Z,1012.51
2018-02-04T07:12:33.383Z,1012.55
2018-02-04T07:13:33.371Z,1012.52
2018-02-04T07:14:33.358Z,1012.56
2018-02-04T07:15:33.347Z,1012.61
2018-02-04T07:16:33.330Z,1012.67
2018-02-04T07:17:33.318Z,1012.63
2018-02-04T07:18:33.306Z,1012.67
2018-02-04T07:19:33.293Z,1012.63
2018-02-04T07:20:33.286Z,1012.64
2018-02-04T07:21:33.276Z,1012.63
2018-02-04T07:22:33.261Z,1012.67
2018-02-04T07:23:33.298Z,1012.69
2018-02-04T07:24:33.238Z,1012.72
2018-02-04T07:25:33.226Z,1012.69
2018-02-04T07:26:33.214Z,1012.72
2018-02-04T07:27:33.202Z,1012.71
2018-02-04T07:28:33.186Z,1012.73
2018-02-04T07:29:33.174Z,1012.75
2018-02-04T07:30:33.161Z,1012.71
2018-02-04T07:31:33.151Z,1012.73
2018-02-04T07:32:33.138Z,1012.74
2018-02-04T07:33:33.126Z,1012.72
2018-02-04T07:34:33.114Z,1012.78
2018-02-04T07:35:33.102Z,1012.80
2018-02-04T07:36:33.095Z,1012.83
2018-02-04T07:37:33.085Z,1012.84
2018-02-04T07:38:33.071Z,1012.85
2018-02-04T07:39:33.059Z,1012.85
2018-02-04T07:40:33.047Z,1012.90
2018-02-04T07:41:33.036Z,1012.89
2018-02-04T07:42:33.023Z,1012.94
2018-02-04T07:43:33.012Z,1012.94
2018-02-04T07:44:32.996Z,1012.93
2018-02-04T07:45:32.987Z,1012.87
2018-02-04T07:46:32.972Z,1012.95
2018-02-04T07:47:32.960Z,1012.94
2018-02-04T07:48:32.948Z,1013.00
2018-02-04T07:49:32.936Z,1013.05
2018-02-04T07:50:32.924Z,1013.04
2018-02-04T07:51:32.913Z,1013.04
2018-02-04T07:52:32.906Z,1013.06
2018-02-04T07:53:32.893Z,1013.08
2018-02-04T07:54:32.882Z,1013.12
2018-02-04T07:55:32.873Z,1013.16
2018-02-04T07:56:32.859Z,1013.20
2018-02-04T07:57:32.847Z,1013.20
2018-02-04T07:58:32.834Z,1013.17
2018-02-04T07:59:32.824Z,1013.20
2018-02-04T08:00:32.808Z,1013.21
2018-02-04T08:01:32.797Z,1013.16
2018-02-04T08:02:32.784Z,1013.12
2018-02-04T08:03:32.773Z,1013.17
2018-02-04T08:04:32.761Z,1013.18
2018-02-04T08:05:32.750Z,1013.22
2018-02-04T08:06:32.739Z,1013.27
2018-02-04T08:07:32.728Z,1013.29
2018-02-04T08:08:32.720Z,1013.27
2018-02-04T08:09:32.709Z,1013.31
2018-02-04T08:10:32.697Z,1013.36
2018-02-04T08:11:32.686Z,1013.40
2018-02-04T08:12:32.674Z,1013.37
2018-02-04T08:13:32.663Z,1013.36
2018-02-04T08:14:32.651Z,1013.38
2018-02-04T08:15:32.641Z,1013.33
2018-02-04T08:16:32.628Z,1013.33
2018-02-04T08:17:32.615Z,1013.34
2018-02-04T08:18:32.604Z,1013.41
2018-02-04T08:19:32.593Z,1013.84
2018-02-04T08:20:32.583Z,1013.48
2018-02-04T08:21:32.572Z,1013.66
2018-02-04T08:22:32.560Z,1013.66
2018-02-04T08:23:32.551Z,1013.79
2018-02-04T08:24:32.548Z,1013.73
2018-02-04T08:25:32.536Z,1014.08
2018-02-04T08:26:32.526Z,1014.22
2018-02-04T08:27:32.517Z,1014.23
2018-02-04T08:28:32.508Z,1014.23
2018-02-04T08:29:32.500Z,1014.24
2018-02-04T08:30:32.491Z,1014.28
2018-02-04T08:31:32.483Z,1014.32
2018-02-04T08:32:32.472Z,1014.32
2018-02-04T08:33:32.466Z,1014.42
2018-02-04T08:34:32.459Z,1014.44
2018-02-04T08:35:32.453Z,1014.54
2018-02-04T08:36:32.447Z,1014.60
2018-02-04T08:37:32.446Z,1014.59
2018-02-04T08:38:32.438Z,1014.67
2018-02-04T08:39:32.433Z,1014.11
2018-02-04T08:40:32.434Z,1014.05
2018-02-04T08:41:32.431Z,1013.95
2018-02-04T08:42:32.428Z,1014.02
2018-02-04T08:43:32.425Z,1014.06
2018-02-04T08:44:32.423Z,1014.05
2018-02-04T08:45:32.420Z,1014.01
2018-02-04T08:46:32.418Z,1014.01
2018-02-04T08:47:32.413Z,1013.98
2018-02-04T08:48:32.406Z,1013.96
2018-02-04T08:49:32.410Z,1013.96
2018-02-04T08:50:32.400Z,1013.94
2018-02-04T08:51:32.397Z,1014.01
2018-02-04T08:52:32.395Z,1013.93
2018-02-04T08:53:32.413Z,1013.91
2018-02-04T08:54:32.424Z,1013.97
2018-02-04T08:55:32.384Z,1013.96
2018-02-04T08:56:32.385Z,1013.91
2018-02-04T08:57:32.382Z,1013.97
2018-02-04T08:58:32.378Z,1014.05
2018-02-04T08:59:32.378Z,1014.01
2018-02-04T09:00:32.370Z,1014.01
2018-02-04T09:01:32.364Z,1013.98
2018-02-04T09:02:32.358Z,1014.00
2018-02-04T09:03:32.353Z,1014.04
2018-02-04T09:04:32.343Z,1014.06
2018-02-04T09:05:32.337Z,1014.05
2018-02-04T09:06:32.331Z,1014.09
2018-02-04T09:07:32.325Z,1014.12
2018-02-04T09:08:32.319Z,1014.14
2018-02-04T09:09:32.312Z,1014.17
2018-02-04T09:10:32.304Z,1014.13
2018-02-04T09:11:32.298Z,1014.17
2018-02-04T09:12:32.295Z,1014.13
2018-02-04T09:13:32.288Z,1014.18
2018-02-04T09:14:32.280Z,1014.17
2018-02-04T09:15:32.272Z,1014.17
2018-02-04T09:16:32.265Z,1014.13
2018-02-04T09:17:32.258Z,1014.11
2018-02-04T09:18:32.250Z,1014.13
2018-02-04T09:19:32.244Z,1014.14
2018-02-04T09:20:32.229Z,1014.27
2018-02-04T09:21:32.221Z,1014.14
2018-02-04T09:22:32.212Z,1014.21
2018-02-04T09:23:32.204Z,1014.21
2018-02-04T09:24:32.200Z,1014.28
2018-02-04T09:25:32.192Z,1014.29
2018-02-04T09:26:32.183Z,1014.34
2018-02-04T09:27:32.175Z,1014.33
2018-02-04T09:28:32.162Z,1014.30
2018-02-04T09:29:32.153Z,1014.28
2018-02-04T09:30:32.144Z,1014.40
2018-02-04T09:31:32.135Z,1014.33
2018-02-04T09:32:32.127Z,1014.36
2018-02-04T09:33:32.118Z,1014.46
2018-02-04T09:34:32.109Z,1014.50
2018-02-04T09:35:32.100Z,1014.45
2018-02-04T09:36:32.096Z,1014.45
2018-02-04T09:37:32.088Z,1014.47
2018-02-04T09:38:32.078Z,1014.45
2018-02-04T09:39:32.069Z,1014.46
2018-02-04T09:40:32.064Z,1014.53
2018-02-04T09:41:32.052Z,1014.53
2018-02-04T09:42:32.042Z,1014.54
2018-02-04T09:43:32.034Z,1014.55
2018-02-04T09:44:32.021Z,1014.54
2018-02-04T09:45:32.012Z,1014.55
2018-02-04T09:46:32.002Z,1014.55
2018-02-04T09:47:31.995Z,1014.55
2018-02-04T09:48:31.985Z,1014.61
2018-02-04T09:49:31.977Z,1014.61
2018-02-04T09:50:31.967Z,1014.61
2018-02-04T09:51:31.958Z,1014.64
2018-02-04T09:52:31.954Z,1014.66
2018-02-04T09:53:31.945Z,1014.62
2018-02-04T09:54:31.935Z,1014.68
2018-02-04T09:55:31.926Z,1014.63
2018-02-04T09:56:31.917Z,1014.60
2018-02-04T09:57:31.908Z,1014.63
2018-02-04T09:58:31.899Z,1014.60
2018-02-04T09:59:31.890Z,1014.72
2018-02-04T10:00:31.876Z,1014.68
2018-02-04T10:01:31.866Z,1014.72
2018-02-04T10:02:31.863Z,1014.72
2018-02-04T10:03:31.848Z,1014.73
2018-02-04T10:04:31.838Z,1014.72
2018-02-04T10:05:31.829Z,1014.74
2018-02-04T10:06:31.818Z,1014.77
2018-02-04T10:07:31.809Z,1014.79
2018-02-04T10:08:31.804Z,1014.83
2018-02-04T10:09:31.795Z,1014.81
2018-02-04T10:10:31.785Z,1014.88
2018-02-04T10:11:31.774Z,1014.89
2018-02-04T10:12:31.765Z,1014.89
2018-02-04T10:13:31.755Z,1014.91
2018-02-04T10:14:31.745Z,1014.93
2018-02-04T10:15:31.735Z,1014.91
2018-02-04T10:16:31.721Z,1014.93
2018-02-04T10:17:31.712Z,1014.95
2018-02-04T10:18:31.701Z,1014.91
2018-02-04T10:19:31.729Z,1014.93
2018-02-04T10:20:31.682Z,1014.88
2018-02-04T10:21:31.672Z,1014.83
2018-02-04T10:22:31.662Z,1014.89
2018-02-04T10:23:31.652Z,1014.91
2018-02-04T10:24:31.647Z,1014.91
2018-02-04T10:25:31.637Z,1014.96
2018-02-04T10:26:31.627Z,1014.96
2018-02-04T10:27:31.618Z,1014.96
2018-02-04T10:28:31.604Z,1014.98
2018-02-04T10:29:31.594Z,1014.98
2018-02-04T10:30:31.584Z,1014.94
2018-02-04T10:31:31.574Z,1014.94
2018-02-04T10:32:31.570Z,1014.93
2018-02-04T10:33:31.560Z,1014.97
2018-02-04T10:34:31.550Z,1014.99
2018-02-04T10:35:31.540Z,1015.02
2018-02-04T10:36:31.531Z,1015.02
2018-02-04T10:37:31.522Z,1015.00
2018-02-04T10:38:31.515Z,1015.04
2018-02-04T10:39:31.508Z,1015.05
2018-02-04T10:40:31.489Z,1015.04
2018-02-04T10:41:31.508Z,1015.05
2018-02-04T10:42:31.469Z,1015.06
2018-02-04T10:43:31.460Z,1015.08
2018-02-04T10:44:31.449Z,1015.10
2018-02-04T10:45:31.442Z,1015.03
2018-02-04T10:46:31.431Z,1015.09
2018-02-04T10:47:31.424Z,1015.09
2018-02-04T10:48:31.417Z,1015.08
2018-02-04T10:49:31.408Z,1015.07
2018-02-04T10:50:31.397Z,1015.10
2018-02-04T10:51:31.407Z,1015.15
2018-02-04T10:52:31.378Z,1015.15
2018-02-04T10:53:31.368Z,1015.10
2018-02-04T10:54:31.357Z,1015.12
2018-02-04T10:55:31.348Z,1015.11
2018-02-04T10:56:31.338Z,1015.11
2018-02-04T10:57:31.324Z,1015.19
2018-02-04T10:58:31.313Z,1015.15
2018-02-04T10:59:31.303Z,1015.17
2018-02-04T11:00:31.293Z,1015.20
2018-02-04T11:01:31.284Z,1015.17
2018-02-04T11:02:31.272Z,1015.16
2018-02-04T11:03:31.264Z,1015.15
2018-02-04T11:04:31.256Z,1015.15
2018-02-04T11:05:31.247Z,1015.21
2018-02-04T11:06:31.235Z,1015.15
2018-02-04T11:07:31.226Z,1015.16
2018-02-04T11:08:31.215Z,1015.15
2018-02-04T11:09:31.206Z,1015.19
2018-02-04T11:10:31.199Z,1015.17
2018-02-04T11:11:31.188Z,1015.20
2018-02-04T11:12:31.169Z,1015.26
2018-02-04T11:13:31.159Z,1015.28
2018-02-04T11:14:31.149Z,1015.27
2018-02-04T11:15:31.138Z,1015.30
2018-02-04T11:16:31.131Z,1015.28
2018-02-04T11:17:31.117Z,1015.28
2018-02-04T11:18:31.107Z,1015.34
2018-02-04T11:19:31.099Z,1015.33
2018-02-04T11:20:31.090Z,1015.35
2018-02-04T11:21:31.079Z,1015.34
2018-02-04T11:22:31.069Z,1015.35
2018-02-04T11:23:31.060Z,1015.40
2018-02-04T11:24:31.047Z,1015.43
2018-02-04T11:25:31.040Z,1015.45
2018-02-04T11:26:31.033Z,1015.46
2018-02-04T11:27:31.018Z,1015.48
2018-02-04T11:28:31.002Z,1015.49
2018-02-04T11:29:30.990Z,1015.48
2018-02-04T11:30:30.982Z,1015.51
2018-02-04T11:31:30.969Z,1015.49
2018-02-04T11:32:30.966Z,1015.53
2018-02-04T11:33:30.952Z,1015.54
2018-02-04T11:34:30.940Z,1015.53
2018-02-04T11:35:30.985Z,1015.58
2018-02-04T11:36:30.918Z,1015.52
2018-02-04T11:37:30.905Z,1015.52
2018-02-04T11:38:30.894Z,1015.54
2018-02-04T11:39:30.885Z,1015.60
2018-02-04T11:40:30.881Z,1015.58
2018-02-04T11:41:30.867Z,1015.62
2018-02-04T11:42:30.853Z,1015.66
2018-02-04T11:43:30.843Z,1015.67
2018-02-04T11:44:30.837Z,1015.60
2018-02-04T11:45:30.828Z,1015.67
2018-02-04T11:46:30.813Z,1015.65
2018-02-04T11:47:30.805Z,1015.69
2018-02-04T11:48:30.792Z,1015.65
2018-02-04T11:49:30.785Z,1015.68
2018-02-04T11:50:30.770Z,1015.69
2018-02-04T11:51:30.759Z,1015.71
2018-02-04T11:52:30.745Z,1015.71
2018-02-04T11:53:30.733Z,1015.71
2018-02-04T11:54:30.721Z,1015.69
2018-02-04T11:55:30.713Z,1015.73
2018-02-04T11:56:30.704Z,1015.67
2018-02-04T11:57:30.695Z,1015.72
2018-02-04T11:58:30.683Z,1015.76
2018-02-04T11:59:30.670Z,1015.77
2018-02-04T12:00:30.663Z,1015.75
2018-02-04T12:01:30.650Z,1015.80
2018-02-04T12:02:30.639Z,1015.74
2018-02-04T12:03:30.627Z,1015.80
2018-02-04T12:04:30.616Z,1015.77
2018-02-04T12:05:30.605Z,1015.76